sensor_id;sensor_type;location;lat;lon;timestamp;pressure;altitude;pressure_sealevel;temperature;humidity
41596;BME280;27283;52.504;13.358;2023-03-20T00:01:20;101174.72;;;11.52;81.74
41596;BME280;27283;52.504;13.358;2023-03-20T00:03:56;101178.72;;;11.40;82.24
41596;BME280;27283;52.504;13.358;2023-03-20T00:06:28;101183.94;;;11.42;81.96
41596;BME280;27283;52.504;13.358;2023-03-20T00:09:01;101177.00;;;11.39;82.21
41596;BME280;27283;52.504;13.358;2023-03-20T00:11:40;101178.50;;;11.33;82.20
41596;BME280;27283;52.504;13.358;2023-03-20T00:14:21;101179.13;;;11.27;82.62
41596;BME280;27283;52.504;13.358;2023-03-20T00:16:54;101183.16;;;11.23;82.78
41596;BME280;27283;52.504;13.358;2023-03-20T00:19:28;101181.09;;;11.17;83.30
41596;BME280;27283;52.504;13.358;2023-03-20T00:22:00;101187.50;;;11.16;83.52
41596;BME280;27283;52.504;13.358;2023-03-20T00:24:33;101176.03;;;11.14;83.56
41596;BME280;27283;52.504;13.358;2023-03-20T00:27:08;101184.56;;;11.09;84.07
41596;BME280;27283;52.504;13.358;2023-03-20T00:29:45;101175.66;;;11.09;84.28
41596;BME280;27283;52.504;13.358;2023-03-20T00:32:17;101182.38;;;11.05;84.20
41596;BME280;27283;52.504;13.358;2023-03-20T00:34:49;101176.41;;;10.93;84.60
41596;BME280;27283;52.504;13.358;2023-03-20T00:37:22;101172.88;;;10.92;84.85
41596;BME280;27283;52.504;13.358;2023-03-20T00:39:56;101167.44;;;10.84;85.00
41596;BME280;27283;52.504;13.358;2023-03-20T00:42:28;101169.22;;;10.75;85.62
41596;BME280;27283;52.504;13.358;2023-03-20T00:45:05;101174.06;;;10.72;85.52
41596;BME280;27283;52.504;13.358;2023-03-20T00:47:38;101163.94;;;10.66;86.06
41596;BME280;27283;52.504;13.358;2023-03-20T00:50:15;101158.34;;;10.59;86.41
41596;BME280;27283;52.504;13.358;2023-03-20T00:52:50;101162.97;;;10.49;86.71
41596;BME280;27283;52.504;13.358;2023-03-20T00:55:26;101159.03;;;10.43;87.31
41596;BME280;27283;52.504;13.358;2023-03-20T00:58:01;101160.38;;;10.39;87.57
41596;BME280;27283;52.504;13.358;2023-03-20T01:00:39;101161.81;;;10.33;87.81
41596;BME280;27283;52.504;13.358;2023-03-20T01:03:15;101164.38;;;10.25;88.29
41596;BME280;27283;52.504;13.358;2023-03-20T01:05:49;101165.88;;;10.19;88.60
41596;BME280;27283;52.504;13.358;2023-03-20T01:08:23;101164.63;;;10.14;89.47
41596;BME280;27283;52.504;13.358;2023-03-20T01:10:57;101164.63;;;10.14;89.62
41596;BME280;27283;52.504;13.358;2023-03-20T01:13:30;101159.72;;;10.09;89.60
41596;BME280;27283;52.504;13.358;2023-03-20T01:16:17;101165.53;;;10.04;90.50
41596;BME280;27283;52.504;13.358;2023-03-20T01:18:51;101161.31;;;10.02;90.22
41596;BME280;27283;52.504;13.358;2023-03-20T01:21:27;101151.19;;;9.96;90.64
41596;BME280;27283;52.504;13.358;2023-03-20T01:24:00;101161.09;;;9.95;91.29
41596;BME280;27283;52.504;13.358;2023-03-20T01:26:35;101161.94;;;9.96;91.40
41596;BME280;27283;52.504;13.358;2023-03-20T01:29:16;101162.75;;;9.96;91.22
41596;BME280;27283;52.504;13.358;2023-03-20T01:31:53;101170.13;;;9.94;91.67
41596;BME280;27283;52.504;13.358;2023-03-20T01:34:25;101171.84;;;9.95;91.31
41596;BME280;27283;52.504;13.358;2023-03-20T01:36:57;101170.97;;;9.94;91.52
41596;BME280;27283;52.504;13.358;2023-03-20T01:39:33;101176.66;;;9.91;91.72
41596;BME280;27283;52.504;13.358;2023-03-20T01:42:06;101174.97;;;9.90;91.74
41596;BME280;27283;52.504;13.358;2023-03-20T01:44:38;101161.84;;;9.87;91.76
41596;BME280;27283;52.504;13.358;2023-03-20T01:47:16;101168.50;;;9.83;91.96
41596;BME280;27283;52.504;13.358;2023-03-20T01:50:21;101167.50;;;9.84;91.95
41596;BME280;27283;52.504;13.358;2023-03-20T01:52:59;101169.34;;;9.84;92.29
41596;BME280;27283;52.504;13.358;2023-03-20T01:55:33;101176.41;;;9.85;92.23
41596;BME280;27283;52.504;13.358;2023-03-20T01:58:08;101168.06;;;9.88;92.08
41596;BME280;27283;52.504;13.358;2023-03-20T02:00:44;101176.13;;;9.88;92.20
41596;BME280;27283;52.504;13.358;2023-03-20T02:03:21;101182.88;;;9.92;92.54
41596;BME280;27283;52.504;13.358;2023-03-20T02:05:54;101181.88;;;9.93;92.56
41596;BME280;27283;52.504;13.358;2023-03-20T02:08:30;101181.56;;;9.96;92.37
41596;BME280;27283;52.504;13.358;2023-03-20T02:11:04;101180.56;;;9.97;92.66
41596;BME280;27283;52.504;13.358;2023-03-20T02:13:38;101186.09;;;9.96;92.40
41596;BME280;27283;52.504;13.358;2023-03-20T02:16:13;101183.41;;;9.96;92.56
41596;BME280;27283;52.504;13.358;2023-03-20T02:18:50;101182.59;;;9.95;92.33
41596;BME280;27283;52.504;13.358;2023-03-20T02:21:57;101186.09;;;9.96;92.96
41596;BME280;27283;52.504;13.358;2023-03-20T02:28:07;101175.06;;;9.99;92.94
41596;BME280;27283;52.504;13.358;2023-03-20T02:31:01;101178.41;;;10.01;93.01
41596;BME280;27283;52.504;13.358;2023-03-20T02:34:13;101177.75;;;9.99;93.03
41596;BME280;27283;52.504;13.358;2023-03-20T02:37:25;101173.59;;;10.04;92.84
41596;BME280;27283;52.504;13.358;2023-03-20T02:40:10;101172.75;;;10.04;92.65
41596;BME280;27283;52.504;13.358;2023-03-20T02:42:53;101170.38;;;10.01;92.53
41596;BME280;27283;52.504;13.358;2023-03-20T02:45:33;101179.59;;;9.98;93.00
41596;BME280;27283;52.504;13.358;2023-03-20T02:48:12;101182.13;;;10.00;93.00
41596;BME280;27283;52.504;13.358;2023-03-20T02:50:50;101178.56;;;9.99;93.45
41596;BME280;27283;52.504;13.358;2023-03-20T02:53:34;101181.97;;;10.01;93.17
41596;BME280;27283;52.504;13.358;2023-03-20T02:56:14;101181.97;;;10.01;93.38
41596;BME280;27283;52.504;13.358;2023-03-20T02:58:53;101190.56;;;10.05;93.19
41596;BME280;27283;52.504;13.358;2023-03-20T03:01:34;101182.91;;;10.10;92.99
41596;BME280;27283;52.504;13.358;2023-03-20T03:04:10;101178.53;;;10.09;93.20
41596;BME280;27283;52.504;13.358;2023-03-20T03:06:46;101181.75;;;10.13;93.26
41596;BME280;27283;52.504;13.358;2023-03-20T03:09:30;101170.84;;;10.14;93.12
41596;BME280;27283;52.504;13.358;2023-03-20T03:12:09;101170.53;;;10.17;92.60
41596;BME280;27283;52.504;13.358;2023-03-20T03:14:46;101185.22;;;10.23;92.31
41596;BME280;27283;52.504;13.358;2023-03-20T03:17:22;101178.84;;;10.24;92.13
41596;BME280;27283;52.504;13.358;2023-03-20T03:19:58;101181.69;;;10.22;92.06
41596;BME280;27283;52.504;13.358;2023-03-20T03:22:33;101185.06;;;10.24;92.25
41596;BME280;27283;52.504;13.358;2023-03-20T03:25:11;101180.19;;;10.28;92.06
41596;BME280;27283;52.504;13.358;2023-03-20T03:27:46;101187.59;;;10.26;91.95
41596;BME280;27283;52.504;13.358;2023-03-20T03:30:24;101187.75;;;10.24;92.21
41596;BME280;27283;52.504;13.358;2023-03-20T03:33:08;101190.28;;;10.26;92.02
41596;BME280;27283;52.504;13.358;2023-03-20T03:35:45;101190.28;;;10.26;92.12
41596;BME280;27283;52.504;13.358;2023-03-20T03:38:27;101189.03;;;10.20;91.65
41596;BME280;27283;52.504;13.358;2023-03-20T03:41:17;101191.72;;;10.20;92.03
41596;BME280;27283;52.504;13.358;2023-03-20T03:43:57;101194.28;;;9.76;94.98
41596;BME280;27283;52.504;13.358;2023-03-20T03:46:38;101194.66;;;9.81;94.81
41596;BME280;27283;52.504;13.358;2023-03-20T03:49:16;101192.81;;;9.54;97.10
41596;BME280;27283;52.504;13.358;2023-03-20T03:51:58;101198.97;;;9.74;96.21
41596;BME280;27283;52.504;13.358;2023-03-20T03:54:34;101190.19;;;9.72;96.37
41596;BME280;27283;52.504;13.358;2023-03-20T03:57:15;101189.13;;;9.83;96.02
41596;BME280;27283;52.504;13.358;2023-03-20T03:59:50;101189.84;;;9.85;95.30
41596;BME280;27283;52.504;13.358;2023-03-20T04:02:24;101189.41;;;9.89;94.72
41596;BME280;27283;52.504;13.358;2023-03-20T04:04:58;101191.09;;;9.90;94.95
41596;BME280;27283;52.504;13.358;2023-03-20T04:07:33;101190.22;;;9.90;94.73
41596;BME280;27283;52.504;13.358;2023-03-20T04:10:07;101194.63;;;9.91;94.64
41596;BME280;27283;52.504;13.358;2023-03-20T04:12:44;101190.06;;;9.91;94.85
41596;BME280;27283;52.504;13.358;2023-03-20T04:15:16;101202.47;;;9.74;96.25
41596;BME280;27283;52.504;13.358;2023-03-20T04:17:49;101198.38;;;9.43;98.73
41596;BME280;27283;52.504;13.358;2023-03-20T04:20:22;101204.00;;;9.49;99.30
41596;BME280;27283;52.504;13.358;2023-03-20T04:22:54;101212.63;;;9.53;99.14
41596;BME280;27283;52.504;13.358;2023-03-20T04:25:27;101211.00;;;9.60;98.66
41596;BME280;27283;52.504;13.358;2023-03-20T04:28:02;101213.38;;;9.45;99.40
41596;BME280;27283;52.504;13.358;2023-03-20T04:30:35;101219.06;;;9.60;98.87
41596;BME280;27283;52.504;13.358;2023-03-20T04:33:07;101212.66;;;9.43;99.77
41596;BME280;27283;52.504;13.358;2023-03-20T04:35:40;101223.94;;;9.47;100.00
41596;BME280;27283;52.504;13.358;2023-03-20T04:38:31;101214.50;;;9.43;100.00
41596;BME280;27283;52.504;13.358;2023-03-20T04:41:04;101216.81;;;9.65;99.51
41596;BME280;27283;52.504;13.358;2023-03-20T04:43:39;101219.47;;;9.65;98.96
41596;BME280;27283;52.504;13.358;2023-03-20T04:46:12;101211.81;;;9.70;98.57
41596;BME280;27283;52.504;13.358;2023-03-20T04:48:44;101216.44;;;9.78;98.41
41596;BME280;27283;52.504;13.358;2023-03-20T04:52:08;101216.00;;;9.83;97.52
41596;BME280;27283;52.504;13.358;2023-03-20T04:54:40;101217.09;;;9.90;97.02
41596;BME280;27283;52.504;13.358;2023-03-20T04:57:13;101214.97;;;9.93;96.89
41596;BME280;27283;52.504;13.358;2023-03-20T04:59:48;101219.31;;;9.94;96.36
41596;BME280;27283;52.504;13.358;2023-03-20T05:02:20;101223.41;;;9.99;96.35
41596;BME280;27283;52.504;13.358;2023-03-20T05:04:53;101220.94;;;9.87;97.32
41596;BME280;27283;52.504;13.358;2023-03-20T05:07:32;101222.91;;;9.57;100.00
41596;BME280;27283;52.504;13.358;2023-03-20T05:10:05;101224.28;;;9.62;100.00
41596;BME280;27283;52.504;13.358;2023-03-20T05:12:38;101224.78;;;9.47;100.00
41596;BME280;27283;52.504;13.358;2023-03-20T05:15:13;101224.03;;;9.55;100.00
41596;BME280;27283;52.504;13.358;2023-03-20T05:17:46;101223.44;;;9.61;100.00
41596;BME280;27283;52.504;13.358;2023-03-20T05:20:19;101220.03;;;9.31;100.00
41596;BME280;27283;52.504;13.358;2023-03-20T05:22:51;101225.91;;;9.45;100.00
41596;BME280;27283;52.504;13.358;2023-03-20T05:25:24;101220.91;;;9.32;100.00
41596;BME280;27283;52.504;13.358;2023-03-20T05:27:56;101219.34;;;9.29;100.00
41596;BME280;27283;52.504;13.358;2023-03-20T05:30:31;101223.97;;;9.37;100.00
41596;BME280;27283;52.504;13.358;2023-03-20T05:33:03;101227.19;;;9.50;100.00
41596;BME280;27283;52.504;13.358;2023-03-20T05:36:30;101227.91;;;9.43;100.00
41596;BME280;27283;52.504;13.358;2023-03-20T05:39:03;101219.97;;;9.51;100.00
41596;BME280;27283;52.504;13.358;2023-03-20T05:42:01;101227.19;;;9.50;100.00
41596;BME280;27283;52.504;13.358;2023-03-20T05:44:38;101220.00;;;9.41;100.00
41596;BME280;27283;52.504;13.358;2023-03-20T05:47:26;101227.50;;;9.37;100.00
41596;BME280;27283;52.504;13.358;2023-03-20T05:49:58;101227.63;;;9.36;100.00
41596;BME280;27283;52.504;13.358;2023-03-20T05:52:30;101218.69;;;9.55;100.00
41596;BME280;27283;52.504;13.358;2023-03-20T05:55:03;101229.56;;;9.53;100.00
41596;BME280;27283;52.504;13.358;2023-03-20T05:57:35;101234.97;;;9.44;100.00
41596;BME280;27283;52.504;13.358;2023-03-20T06:00:08;101230.16;;;9.47;100.00
41596;BME280;27283;52.504;13.358;2023-03-20T06:02:44;101237.66;;;9.44;100.00
41596;BME280;27283;52.504;13.358;2023-03-20T06:05:16;101234.03;;;9.63;100.00
41596;BME280;27283;52.504;13.358;2023-03-20T06:07:48;101237.16;;;9.68;100.00
41596;BME280;27283;52.504;13.358;2023-03-20T06:10:20;101244.59;;;9.74;100.00
41596;BME280;27283;52.504;13.358;2023-03-20T06:12:52;101252.66;;;9.27;100.00
41596;BME280;27283;52.504;13.358;2023-03-20T06:15:24;101261.47;;;8.99;100.00
41596;BME280;27283;52.504;13.358;2023-03-20T06:17:59;101257.13;;;8.98;100.00
41596;BME280;27283;52.504;13.358;2023-03-20T06:20:31;101267.19;;;9.34;100.00
41596;BME280;27283;52.504;13.358;2023-03-20T06:23:03;101265.94;;;9.28;100.00
41596;BME280;27283;52.504;13.358;2023-03-20T06:25:35;101277.81;;;9.26;100.00
41596;BME280;27283;52.504;13.358;2023-03-20T06:28:08;101279.09;;;9.12;100.00
41596;BME280;27283;52.504;13.358;2023-03-20T06:30:40;101282.91;;;9.29;100.00
41596;BME280;27283;52.504;13.358;2023-03-20T06:33:15;101287.25;;;9.30;100.00
41596;BME280;27283;52.504;13.358;2023-03-20T06:35:46;101296.19;;;9.20;100.00
41596;BME280;27283;52.504;13.358;2023-03-20T06:38:19;101287.59;;;9.17;100.00
41596;BME280;27283;52.504;13.358;2023-03-20T06:40:51;101292.25;;;9.05;100.00
41596;BME280;27283;52.504;13.358;2023-03-20T06:43:23;101296.19;;;8.81;100.00
41596;BME280;27283;52.504;13.358;2023-03-20T06:45:55;101302.00;;;8.77;100.00
41596;BME280;27283;52.504;13.358;2023-03-20T06:48:30;101307.63;;;8.93;100.00
41596;BME280;27283;52.504;13.358;2023-03-20T06:51:02;101302.84;;;8.87;100.00
41596;BME280;27283;52.504;13.358;2023-03-20T06:53:35;101310.06;;;8.86;100.00
41596;BME280;27283;52.504;13.358;2023-03-20T06:56:09;101313.84;;;8.84;100.00
41596;BME280;27283;52.504;13.358;2023-03-20T06:58:42;101314.97;;;8.72;100.00
41596;BME280;27283;52.504;13.358;2023-03-20T07:01:15;101307.78;;;8.72;100.00
41596;BME280;27283;52.504;13.358;2023-03-20T07:03:51;101308.38;;;8.95;100.00
41596;BME280;27283;52.504;13.358;2023-03-20T07:06:23;101314.84;;;8.93;100.00
41596;BME280;27283;52.504;13.358;2023-03-20T07:08:55;101329.53;;;8.79;100.00
41596;BME280;27283;52.504;13.358;2023-03-20T07:11:27;101326.53;;;8.62;100.00
41596;BME280;27283;52.504;13.358;2023-03-20T07:14:00;101326.38;;;8.54;100.00
41596;BME280;27283;52.504;13.358;2023-03-20T07:16:32;101323.00;;;8.52;100.00
41596;BME280;27283;52.504;13.358;2023-03-20T07:19:07;101329.78;;;8.66;100.00
41596;BME280;27283;52.504;13.358;2023-03-20T07:21:41;101331.88;;;8.52;100.00
41596;BME280;27283;52.504;13.358;2023-03-20T07:24:15;101328.41;;;8.31;100.00
41596;BME280;27283;52.504;13.358;2023-03-20T07:26:47;101334.94;;;8.38;100.00
41596;BME280;27283;52.504;13.358;2023-03-20T07:29:19;101342.09;;;8.28;100.00
41596;BME280;27283;52.504;13.358;2023-03-20T07:31:52;101335.88;;;8.27;100.00
41596;BME280;27283;52.504;13.358;2023-03-20T07:34:27;101344.50;;;8.31;100.00
41596;BME280;27283;52.504;13.358;2023-03-20T07:36:59;101341.00;;;8.40;100.00
41596;BME280;27283;52.504;13.358;2023-03-20T07:39:32;101346.06;;;8.43;100.00
41596;BME280;27283;52.504;13.358;2023-03-20T07:42:06;101356.09;;;8.41;100.00
41596;BME280;27283;52.504;13.358;2023-03-20T07:44:39;101348.81;;;8.63;100.00
41596;BME280;27283;52.504;13.358;2023-03-20T07:47:11;101349.84;;;8.72;100.00
41596;BME280;27283;52.504;13.358;2023-03-20T07:49:46;101353.34;;;8.62;100.00
41596;BME280;27283;52.504;13.358;2023-03-20T07:52:25;101347.16;;;8.81;100.00
41596;BME280;27283;52.504;13.358;2023-03-20T07:55:07;101348.41;;;8.67;100.00
41596;BME280;27283;52.504;13.358;2023-03-20T07:57:39;101345.91;;;8.76;100.00
41596;BME280;27283;52.504;13.358;2023-03-20T08:00:13;101342.22;;;8.96;100.00
41596;BME280;27283;52.504;13.358;2023-03-20T08:02:46;101350.44;;;9.04;100.00
41596;BME280;27283;52.504;13.358;2023-03-20T08:05:22;101346.03;;;9.03;100.00
41596;BME280;27283;52.504;13.358;2023-03-20T08:07:54;101353.81;;;9.16;100.00
41596;BME280;27283;52.504;13.358;2023-03-20T08:10:26;101344.22;;;9.14;100.00
41596;BME280;27283;52.504;13.358;2023-03-20T08:12:59;101355.78;;;9.04;100.00
41596;BME280;27283;52.504;13.358;2023-03-20T08:15:31;101358.16;;;8.78;100.00
41596;BME280;27283;52.504;13.358;2023-03-20T08:18:04;101356.63;;;8.85;100.00
41596;BME280;27283;52.504;13.358;2023-03-20T08:20:51;101369.47;;;9.11;100.00
41596;BME280;27283;52.504;13.358;2023-03-20T08:23:23;101369.16;;;8.75;100.00
41596;BME280;27283;52.504;13.358;2023-03-20T08:25:55;101374.41;;;8.96;100.00
41596;BME280;27283;52.504;13.358;2023-03-20T08:28:27;101382.88;;;9.11;100.00
41596;BME280;27283;52.504;13.358;2023-03-20T08:31:15;101378.53;;;9.20;98.96
41596;BME280;27283;52.504;13.358;2023-03-20T08:33:47;101373.28;;;9.28;97.56
41596;BME280;27283;52.504;13.358;2023-03-20T08:36:22;101368.19;;;9.25;97.25
41596;BME280;27283;52.504;13.358;2023-03-20T08:38:54;101360.66;;;9.58;96.49
41596;BME280;27283;52.504;13.358;2023-03-20T08:41:26;101367.94;;;9.85;93.37
41596;BME280;27283;52.504;13.358;2023-03-20T08:43:59;101365.03;;;9.69;92.83
41596;BME280;27283;52.504;13.358;2023-03-20T08:46:31;101368.41;;;10.18;91.58
41596;BME280;27283;52.504;13.358;2023-03-20T08:49:03;101363.97;;;10.64;87.40
41596;BME280;27283;52.504;13.358;2023-03-20T08:51:39;101380.06;;;11.10;84.36
41596;BME280;27283;52.504;13.358;2023-03-20T08:54:11;101379.91;;;11.56;82.19
41596;BME280;27283;52.504;13.358;2023-03-20T08:56:46;101385.81;;;11.78;81.21
41596;BME280;27283;52.504;13.358;2023-03-20T08:59:19;101386.53;;;10.72;81.70
41596;BME280;27283;52.504;13.358;2023-03-20T09:01:52;101379.00;;;10.57;84.97
41596;BME280;27283;52.504;13.358;2023-03-20T09:04:25;101371.28;;;11.08;83.71
41596;BME280;27283;52.504;13.358;2023-03-20T09:07:00;101380.66;;;10.86;82.51
41596;BME280;27283;52.504;13.358;2023-03-20T09:09:33;101375.16;;;10.60;83.97
41596;BME280;27283;52.504;13.358;2023-03-20T09:12:06;101381.19;;;10.44;82.54
41596;BME280;27283;52.504;13.358;2023-03-20T09:14:38;101381.03;;;10.45;83.84
41596;BME280;27283;52.504;13.358;2023-03-20T09:17:11;101386.53;;;10.72;82.43
41596;BME280;27283;52.504;13.358;2023-03-20T09:19:43;101382.41;;;10.77;81.89
41596;BME280;27283;52.504;13.358;2023-03-20T09:22:19;101387.97;;;11.12;81.31
41596;BME280;27283;52.504;13.358;2023-03-20T09:24:51;101381.19;;;11.08;80.41
41596;BME280;27283;52.504;13.358;2023-03-20T09:27:24;101377.75;;;10.52;81.72
41596;BME280;27283;52.504;13.358;2023-03-20T09:29:56;101378.88;;;10.77;81.40
41596;BME280;27283;52.504;13.358;2023-03-20T09:32:29;101369.88;;;10.68;81.27
41596;BME280;27283;52.504;13.358;2023-03-20T09:35:04;101379.22;;;10.64;80.91
41596;BME280;27283;52.504;13.358;2023-03-20T09:37:39;101386.91;;;10.59;80.76
41596;BME280;27283;52.504;13.358;2023-03-20T09:40:22;101374.78;;;10.73;81.42
41596;BME280;27283;52.504;13.358;2023-03-20T09:43:01;101377.25;;;10.66;81.77
41596;BME280;27283;52.504;13.358;2023-03-20T09:45:44;101380.50;;;11.06;79.38
41596;BME280;27283;52.504;13.358;2023-03-20T09:48:24;101370.03;;;11.39;78.21
41596;BME280;27283;52.504;13.358;2023-03-20T09:51:04;101370.88;;;11.03;79.37
41596;BME280;27283;52.504;13.358;2023-03-20T09:53:45;101380.13;;;11.01;78.57
41596;BME280;27283;52.504;13.358;2023-03-20T09:56:24;101381.81;;;11.02;79.53
41596;BME280;27283;52.504;13.358;2023-03-20T09:58:58;101379.88;;;10.76;79.73
41596;BME280;27283;52.504;13.358;2023-03-20T10:01:37;101387.25;;;10.74;80.48
41596;BME280;27283;52.504;13.358;2023-03-20T10:04:12;101384.19;;;10.87;78.88
41596;BME280;27283;52.504;13.358;2023-03-20T10:06:45;101394.91;;;10.69;78.82
41596;BME280;27283;52.504;13.358;2023-03-20T10:09:23;101391.75;;;11.01;78.08
41596;BME280;27283;52.504;13.358;2023-03-20T10:12:21;101395.19;;;10.93;75.45
41596;BME280;27283;52.504;13.358;2023-03-20T10:15:00;101388.22;;;11.01;76.48
41596;BME280;27283;52.504;13.358;2023-03-20T10:17:43;101394.66;;;11.08;74.66
41596;BME280;27283;52.504;13.358;2023-03-20T10:20:25;101388.41;;;10.89;76.70
41596;BME280;27283;52.504;13.358;2023-03-20T10:23:06;101388.97;;;11.11;75.70
41596;BME280;27283;52.504;13.358;2023-03-20T10:25:46;101396.03;;;11.30;74.82
41596;BME280;27283;52.504;13.358;2023-03-20T10:28:25;101387.00;;;11.57;74.08
41596;BME280;27283;52.504;13.358;2023-03-20T10:31:14;101378.13;;;11.65;72.92
41596;BME280;27283;52.504;13.358;2023-03-20T10:34:00;101391.56;;;11.83;72.65
41596;BME280;27283;52.504;13.358;2023-03-20T10:36:45;101386.16;;;11.57;73.37
41596;BME280;27283;52.504;13.358;2023-03-20T10:39:33;101388.38;;;11.61;72.04
41596;BME280;27283;52.504;13.358;2023-03-20T10:42:16;101387.47;;;11.79;70.86
41596;BME280;27283;52.504;13.358;2023-03-20T10:44:56;101380.59;;;11.76;71.81
41596;BME280;27283;52.504;13.358;2023-03-20T10:47:33;101378.34;;;11.27;72.46
41596;BME280;27283;52.504;13.358;2023-03-20T10:50:13;101380.78;;;11.57;71.85
41596;BME280;27283;52.504;13.358;2023-03-20T10:52:50;101382.91;;;11.09;74.08
41596;BME280;27283;52.504;13.358;2023-03-20T10:55:25;101379.94;;;11.20;73.32
41596;BME280;27283;52.504;13.358;2023-03-20T10:58:15;101380.50;;;11.24;73.58
41596;BME280;27283;52.504;13.358;2023-03-20T11:01:06;101378.78;;;10.69;75.28
41596;BME280;27283;52.504;13.358;2023-03-20T11:03:57;101371.81;;;10.94;75.58
41596;BME280;27283;52.504;13.358;2023-03-20T11:06:31;101382.50;;;11.22;74.08
41596;BME280;27283;52.504;13.358;2023-03-20T11:09:11;101377.03;;;11.31;74.22
41596;BME280;27283;52.504;13.358;2023-03-20T11:11:50;101368.78;;;11.51;74.23
41596;BME280;27283;52.504;13.358;2023-03-20T11:14:32;101364.50;;;10.86;75.42
41596;BME280;27283;52.504;13.358;2023-03-20T11:17:06;101370.66;;;11.32;75.15
41596;BME280;27283;52.504;13.358;2023-03-20T11:19:40;101368.66;;;11.16;74.19
41596;BME280;27283;52.504;13.358;2023-03-20T11:22:23;101373.06;;;10.99;75.25
41596;BME280;27283;52.504;13.358;2023-03-20T11:24:58;101373.44;;;11.23;73.72
41596;BME280;27283;52.504;13.358;2023-03-20T11:27:33;101371.84;;;11.38;72.99
41596;BME280;27283;52.504;13.358;2023-03-20T11:30:12;101372.03;;;11.37;72.56
41596;BME280;27283;52.504;13.358;2023-03-20T11:32:48;101367.56;;;11.45;72.33
41596;BME280;27283;52.504;13.358;2023-03-20T11:35:27;101373.25;;;11.42;71.75
41596;BME280;27283;52.504;13.358;2023-03-20T11:38:11;101365.31;;;11.41;71.86
41596;BME280;27283;52.504;13.358;2023-03-20T11:40:45;101361.28;;;11.89;72.83
41596;BME280;27283;52.504;13.358;2023-03-20T11:43:22;101359.91;;;12.11;70.35
41596;BME280;27283;52.504;13.358;2023-03-20T11:45:59;101360.56;;;12.05;71.25
41596;BME280;27283;52.504;13.358;2023-03-20T11:48:37;101355.47;;;11.49;72.15
41596;BME280;27283;52.504;13.358;2023-03-20T11:51:13;101359.06;;;11.58;71.56
41596;BME280;27283;52.504;13.358;2023-03-20T11:53:58;101348.81;;;11.62;71.62
41596;BME280;27283;52.504;13.358;2023-03-20T11:56:33;101342.31;;;11.02;72.35
41596;BME280;27283;52.504;13.358;2023-03-20T11:59:12;101344.78;;;11.40;72.81
41596;BME280;27283;52.504;13.358;2023-03-20T12:01:51;101339.31;;;11.49;71.47
41596;BME280;27283;52.504;13.358;2023-03-20T12:04:28;101344.97;;;11.64;72.08
41596;BME280;27283;52.504;13.358;2023-03-20T12:07:05;101348.75;;;12.06;70.40
41596;BME280;27283;52.504;13.358;2023-03-20T12:09:44;101336.72;;;11.92;68.75
41596;BME280;27283;52.504;13.358;2023-03-20T12:12:32;101340.16;;;11.76;69.77
41596;BME280;27283;52.504;13.358;2023-03-20T12:15:13;101330.00;;;11.44;70.74
41596;BME280;27283;52.504;13.358;2023-03-20T12:17:55;101328.53;;;11.49;70.48
41596;BME280;27283;52.504;13.358;2023-03-20T12:20:35;101338.53;;;11.57;70.26
41596;BME280;27283;52.504;13.358;2023-03-20T12:23:13;101320.09;;;11.70;70.82
41596;BME280;27283;52.504;13.358;2023-03-20T12:25:54;101325.31;;;11.98;69.07
41596;BME280;27283;52.504;13.358;2023-03-20T12:28:33;101326.78;;;11.66;69.21
41596;BME280;27283;52.504;13.358;2023-03-20T12:31:19;101311.78;;;11.64;68.75
41596;BME280;27283;52.504;13.358;2023-03-20T12:33:59;101317.97;;;11.56;67.62
41596;BME280;27283;52.504;13.358;2023-03-20T12:36:35;101313.31;;;11.66;67.51
41596;BME280;27283;52.504;13.358;2023-03-20T12:39:13;101314.59;;;11.54;68.17
41596;BME280;27283;52.504;13.358;2023-03-20T12:41:58;101316.06;;;11.22;69.48
41596;BME280;27283;52.504;13.358;2023-03-20T12:44:40;101308.31;;;11.19;69.88
41596;BME280;27283;52.504;13.358;2023-03-20T12:47:45;101307.88;;;11.32;69.25
41596;BME280;27283;52.504;13.358;2023-03-20T12:50:31;101318.72;;;11.40;68.87
41596;BME280;27283;52.504;13.358;2023-03-20T12:53:27;101305.06;;;11.15;70.75
41596;BME280;27283;52.504;13.358;2023-03-20T12:56:27;101303.63;;;11.03;71.32
41596;BME280;27283;52.504;13.358;2023-03-20T12:59:09;101296.47;;;11.38;70.21
41596;BME280;27283;52.504;13.358;2023-03-20T13:01:50;101293.09;;;11.62;68.70
41596;BME280;27283;52.504;13.358;2023-03-20T13:04:48;101296.00;;;11.43;69.35
41596;BME280;27283;52.504;13.358;2023-03-20T13:07:40;101295.22;;;11.50;69.67
41596;BME280;27283;52.504;13.358;2023-03-20T13:10:21;101294.13;;;11.61;69.38
41596;BME280;27283;52.504;13.358;2023-03-20T13:13:05;101295.06;;;11.86;68.76
41596;BME280;27283;52.504;13.358;2023-03-20T13:15:55;101303.25;;;12.03;69.26
41596;BME280;27283;52.504;13.358;2023-03-20T13:18:44;101300.97;;;12.16;67.54
41596;BME280;27283;52.504;13.358;2023-03-20T13:21:29;101294.00;;;11.71;69.11
41596;BME280;27283;52.504;13.358;2023-03-20T13:24:30;101286.66;;;11.89;69.69
41596;BME280;27283;52.504;13.358;2023-03-20T13:27:18;101293.13;;;11.97;69.73
41596;BME280;27283;52.504;13.358;2023-03-20T13:30:00;101283.94;;;12.16;69.62
41596;BME280;27283;52.504;13.358;2023-03-20T13:32:44;101283.56;;;12.02;69.58
41596;BME280;27283;52.504;13.358;2023-03-20T13:35:30;101274.88;;;12.17;68.47
41596;BME280;27283;52.504;13.358;2023-03-20T13:38:11;101280.09;;;11.84;71.16
41596;BME280;27283;52.504;13.358;2023-03-20T13:40:52;101277.19;;;12.03;69.23